sensor_id;sensor_type;location;lat;lon;timestamp;P1;durP1;ratioP1;P2;durP2;ratioP2
45694;SDS011;31408;45.468;9.124;2024-03-02T00:00:50;9.80;;;5.40;;
45694;SDS011;31408;45.468;9.124;2024-03-02T00:03:16;10.10;;;4.97;;
45694;SDS011;31408;45.468;9.124;2024-03-02T00:05:41;10.40;;;5.80;;
45694;SDS011;31408;45.468;9.124;2024-03-02T00:08:06;9.77;;;5.15;;
45694;SDS011;31408;45.468;9.124;2024-03-02T00:10:39;10.35;;;5.22;;
45694;SDS011;31408;45.468;9.124;2024-03-02T00:13:10;8.35;;;4.82;;
45694;SDS011;31408;45.468;9.124;2024-03-02T00:18:03;11.35;;;5.55;;
45694;SDS011;31408;45.468;9.124;2024-03-02T00:20:30;9.40;;;5.45;;
45694;SDS011;31408;45.468;9.124;2024-03-02T00:23:02;12.23;;;5.60;;
45694;SDS011;31408;45.468;9.124;2024-03-02T00:25:35;10.00;;;5.55;;
45694;SDS011;31408;45.468;9.124;2024-03-02T00:28:01;9.15;;;5.45;;
45694;SDS011;31408;45.468;9.124;2024-03-02T00:32:58;9.18;;;5.25;;
45694;SDS011;31408;45.468;9.124;2024-03-02T00:35:24;7.68;;;4.85;;
45694;SDS011;31408;45.468;9.124;2024-03-02T00:37:49;9.25;;;5.30;;
45694;SDS011;31408;45.468;9.124;2024-03-02T00:40:14;12.60;;;6.00;;
45694;SDS011;31408;45.468;9.124;2024-03-02T00:42:41;11.45;;;5.55;;
45694;SDS011;31408;45.468;9.124;2024-03-02T00:45:10;11.65;;;6.18;;
45694;SDS011;31408;45.468;9.124;2024-03-02T00:47:38;11.30;;;5.40;;
45694;SDS011;31408;45.468;9.124;2024-03-02T00:50:05;11.00;;;5.45;;
45694;SDS011;31408;45.468;9.124;2024-03-02T00:52:30;8.52;;;4.60;;
45694;SDS011;31408;45.468;9.124;2024-03-02T00:54:58;10.27;;;5.55;;
45694;SDS011;31408;45.468;9.124;2024-03-02T00:57:23;7.93;;;4.68;;
45694;SDS011;31408;45.468;9.124;2024-03-02T00:59:51;8.88;;;5.13;;
45694;SDS011;31408;45.468;9.124;2024-03-02T01:02:16;12.98;;;5.78;;
45694;SDS011;31408;45.468;9.124;2024-03-02T01:04:41;7.88;;;4.55;;
45694;SDS011;31408;45.468;9.124;2024-03-02T01:07:07;8.05;;;4.72;;
45694;SDS011;31408;45.468;9.124;2024-03-02T01:09:32;8.95;;;4.88;;
45694;SDS011;31408;45.468;9.124;2024-03-02T01:11:57;7.85;;;5.25;;
45694;SDS011;31408;45.468;9.124;2024-03-02T01:14:23;19.95;;;7.70;;
45694;SDS011;31408;45.468;9.124;2024-03-02T01:16:48;8.25;;;5.55;;
45694;SDS011;31408;45.468;9.124;2024-03-02T01:19:14;7.93;;;4.93;;
45694;SDS011;31408;45.468;9.124;2024-03-02T01:21:40;9.30;;;4.65;;
45694;SDS011;31408;45.468;9.124;2024-03-02T01:24:05;8.48;;;5.10;;
45694;SDS011;31408;45.468;9.124;2024-03-02T01:26:31;8.85;;;4.93;;
45694;SDS011;31408;45.468;9.124;2024-03-02T01:28:56;8.77;;;4.97;;
45694;SDS011;31408;45.468;9.124;2024-03-02T01:31:21;9.35;;;5.80;;
45694;SDS011;31408;45.468;9.124;2024-03-02T01:33:47;13.52;;;5.28;;
45694;SDS011;31408;45.468;9.124;2024-03-02T01:36:12;8.52;;;5.10;;
45694;SDS011;31408;45.468;9.124;2024-03-02T01:38:38;11.07;;;5.05;;
45694;SDS011;31408;45.468;9.124;2024-03-02T01:41:03;11.65;;;5.82;;
45694;SDS011;31408;45.468;9.124;2024-03-02T01:43:28;9.73;;;5.97;;
45694;SDS011;31408;45.468;9.124;2024-03-02T01:45:54;10.57;;;5.80;;
45694;SDS011;31408;45.468;9.124;2024-03-02T01:48:19;14.20;;;6.97;;
45694;SDS011;31408;45.468;9.124;2024-03-02T01:50:44;12.43;;;5.82;;
45694;SDS011;31408;45.468;9.124;2024-03-02T01:53:10;8.60;;;4.75;;
45694;SDS011;31408;45.468;9.124;2024-03-02T01:55:35;7.97;;;4.68;;
45694;SDS011;31408;45.468;9.124;2024-03-02T01:58:00;9.35;;;4.95;;
45694;SDS011;31408;45.468;9.124;2024-03-02T02:00:26;8.80;;;4.93;;
45694;SDS011;31408;45.468;9.124;2024-03-02T02:02:57;10.15;;;5.40;;
45694;SDS011;31408;45.468;9.124;2024-03-02T02:05:22;9.45;;;4.85;;
45694;SDS011;31408;45.468;9.124;2024-03-02T02:07:48;7.93;;;4.68;;
45694;SDS011;31408;45.468;9.124;2024-03-02T02:10:14;10.50;;;5.93;;
45694;SDS011;31408;45.468;9.124;2024-03-02T02:12:39;8.55;;;5.00;;
45694;SDS011;31408;45.468;9.124;2024-03-02T02:15:21;9.50;;;4.88;;
45694;SDS011;31408;45.468;9.124;2024-03-02T02:17:46;7.95;;;4.28;;
45694;SDS011;31408;45.468;9.124;2024-03-02T02:20:12;10.02;;;5.65;;
45694;SDS011;31408;45.468;9.124;2024-03-02T02:22:37;7.45;;;4.80;;
45694;SDS011;31408;45.468;9.124;2024-03-02T02:25:02;7.88;;;5.05;;
45694;SDS011;31408;45.468;9.124;2024-03-02T02:27:28;10.35;;;5.15;;
45694;SDS011;31408;45.468;9.124;2024-03-02T02:29:53;7.38;;;4.63;;
45694;SDS011;31408;45.468;9.124;2024-03-02T02:32:18;8.10;;;5.30;;
45694;SDS011;31408;45.468;9.124;2024-03-02T02:34:44;11.73;;;4.72;;
45694;SDS011;31408;45.468;9.124;2024-03-02T02:37:09;8.20;;;4.45;;
45694;SDS011;31408;45.468;9.124;2024-03-02T02:39:34;6.97;;;4.63;;
45694;SDS011;31408;45.468;9.124;2024-03-02T02:42:00;8.45;;;4.30;;
45694;SDS011;31408;45.468;9.124;2024-03-02T02:44:26;6.10;;;4.35;;
45694;SDS011;31408;45.468;9.124;2024-03-02T02:46:51;10.77;;;5.10;;
45694;SDS011;31408;45.468;9.124;2024-03-02T02:49:17;7.82;;;4.47;;
45694;SDS011;31408;45.468;9.124;2024-03-02T02:51:42;8.60;;;6.15;;
45694;SDS011;31408;45.468;9.124;2024-03-02T02:54:07;8.43;;;4.28;;
45694;SDS011;31408;45.468;9.124;2024-03-02T02:56:33;8.32;;;4.80;;
45694;SDS011;31408;45.468;9.124;2024-03-02T02:58:58;8.88;;;4.88;;
45694;SDS011;31408;45.468;9.124;2024-03-02T03:01:23;9.95;;;4.90;;
45694;SDS011;31408;45.468;9.124;2024-03-02T03:03:49;7.90;;;4.00;;
45694;SDS011;31408;45.468;9.124;2024-03-02T03:06:14;7.55;;;4.63;;
45694;SDS011;31408;45.468;9.124;2024-03-02T03:08:39;6.97;;;4.65;;
45694;SDS011;31408;45.468;9.124;2024-03-02T03:11:05;6.18;;;4.53;;
45694;SDS011;31408;45.468;9.124;2024-03-02T03:13:31;7.65;;;4.63;;
45694;SDS011;31408;45.468;9.124;2024-03-02T03:15:57;8.70;;;4.93;;
45694;SDS011;31408;45.468;9.124;2024-03-02T03:18:22;6.60;;;4.55;;
45694;SDS011;31408;45.468;9.124;2024-03-02T03:20:48;8.60;;;4.43;;
45694;SDS011;31408;45.468;9.124;2024-03-02T03:23:13;8.57;;;5.13;;
45694;SDS011;31408;45.468;9.124;2024-03-02T03:25:41;12.13;;;4.90;;
45694;SDS011;31408;45.468;9.124;2024-03-02T03:28:07;7.88;;;4.85;;
45694;SDS011;31408;45.468;9.124;2024-03-02T03:30:35;11.48;;;5.97;;
45694;SDS011;31408;45.468;9.124;2024-03-02T03:33:01;10.05;;;5.57;;
45694;SDS011;31408;45.468;9.124;2024-03-02T03:35:26;10.55;;;4.68;;
45694;SDS011;31408;45.468;9.124;2024-03-02T03:37:52;9.85;;;5.30;;
45694;SDS011;31408;45.468;9.124;2024-03-02T03:40:17;7.90;;;5.25;;
45694;SDS011;31408;45.468;9.124;2024-03-02T03:42:44;10.18;;;5.80;;
45694;SDS011;31408;45.468;9.124;2024-03-02T03:45:09;11.07;;;6.07;;
45694;SDS011;31408;45.468;9.124;2024-03-02T03:47:34;13.55;;;6.57;;
45694;SDS011;31408;45.468;9.124;2024-03-02T03:50:00;13.73;;;6.00;;
45694;SDS011;31408;45.468;9.124;2024-03-02T03:52:25;11.38;;;6.05;;
45694;SDS011;31408;45.468;9.124;2024-03-02T03:54:50;10.85;;;6.00;;
45694;SDS011;31408;45.468;9.124;2024-03-02T03:57:16;11.77;;;6.00;;
45694;SDS011;31408;45.468;9.124;2024-03-02T03:59:41;9.80;;;5.75;;
45694;SDS011;31408;45.468;9.124;2024-03-02T04:02:07;10.52;;;5.60;;
45694;SDS011;31408;45.468;9.124;2024-03-02T04:04:33;9.45;;;5.78;;
45694;SDS011;31408;45.468;9.124;2024-03-02T04:06:58;15.88;;;7.13;;
45694;SDS011;31408;45.468;9.124;2024-03-02T04:09:24;9.65;;;5.93;;
45694;SDS011;31408;45.468;9.124;2024-03-02T04:11:50;11.98;;;7.00;;
45694;SDS011;31408;45.468;9.124;2024-03-02T04:14:16;10.65;;;5.93;;
45694;SDS011;31408;45.468;9.124;2024-03-02T04:16:41;10.10;;;6.07;;
45694;SDS011;31408;45.468;9.124;2024-03-02T04:19:07;11.30;;;6.20;;
45694;SDS011;31408;45.468;9.124;2024-03-02T04:21:32;21.55;;;7.55;;
45694;SDS011;31408;45.468;9.124;2024-03-02T04:23:57;19.40;;;9.10;;
45694;SDS011;31408;45.468;9.124;2024-03-02T04:26:24;13.68;;;6.70;;
45694;SDS011;31408;45.468;9.124;2024-03-02T04:28:50;14.18;;;6.88;;
45694;SDS011;31408;45.468;9.124;2024-03-02T04:31:16;16.77;;;8.13;;
45694;SDS011;31408;45.468;9.124;2024-03-02T04:33:42;17.95;;;8.55;;
45694;SDS011;31408;45.468;9.124;2024-03-02T04:36:07;16.60;;;7.75;;
45694;SDS011;31408;45.468;9.124;2024-03-02T04:38:34;16.63;;;7.43;;
45694;SDS011;31408;45.468;9.124;2024-03-02T04:40:59;14.77;;;7.72;;
45694;SDS011;31408;45.468;9.124;2024-03-02T04:43:25;18.48;;;8.65;;
45694;SDS011;31408;45.468;9.124;2024-03-02T04:45:50;14.25;;;7.43;;
45694;SDS011;31408;45.468;9.124;2024-03-02T04:48:15;15.80;;;8.48;;
45694;SDS011;31408;45.468;9.124;2024-03-02T04:50:41;18.95;;;9.10;;
45694;SDS011;31408;45.468;9.124;2024-03-02T04:53:06;15.23;;;8.60;;
45694;SDS011;31408;45.468;9.124;2024-03-02T04:55:32;17.42;;;8.90;;
45694;SDS011;31408;45.468;9.124;2024-03-02T04:58:20;17.80;;;8.75;;
45694;SDS011;31408;45.468;9.124;2024-03-02T05:00:45;14.10;;;8.40;;
45694;SDS011;31408;45.468;9.124;2024-03-02T05:03:12;14.48;;;9.02;;
45694;SDS011;31408;45.468;9.124;2024-03-02T05:05:37;14.68;;;7.53;;
45694;SDS011;31408;45.468;9.124;2024-03-02T05:08:03;13.30;;;7.93;;
45694;SDS011;31408;45.468;9.124;2024-03-02T05:10:29;17.80;;;8.60;;
45694;SDS011;31408;45.468;9.124;2024-03-02T05:12:54;15.20;;;7.50;;
45694;SDS011;31408;45.468;9.124;2024-03-02T05:15:24;11.23;;;6.65;;
45694;SDS011;31408;45.468;9.124;2024-03-02T05:17:49;14.75;;;7.65;;
45694;SDS011;31408;45.468;9.124;2024-03-02T05:20:15;11.95;;;6.68;;
45694;SDS011;31408;45.468;9.124;2024-03-02T05:22:40;9.25;;;5.65;;
45694;SDS011;31408;45.468;9.124;2024-03-02T05:25:06;9.25;;;5.85;;
45694;SDS011;31408;45.468;9.124;2024-03-02T05:27:31;11.30;;;6.65;;
45694;SDS011;31408;45.468;9.124;2024-03-02T05:29:58;10.52;;;5.85;;
45694;SDS011;31408;45.468;9.124;2024-03-02T05:32:23;13.23;;;6.43;;
45694;SDS011;31408;45.468;9.124;2024-03-02T05:34:48;10.43;;;5.63;;
45694;SDS011;31408;45.468;9.124;2024-03-02T05:37:16;11.98;;;6.10;;
45694;SDS011;31408;45.468;9.124;2024-03-02T05:39:41;14.75;;;6.50;;
45694;SDS011;31408;45.468;9.124;2024-03-02T05:42:08;9.13;;;5.20;;
45694;SDS011;31408;45.468;9.124;2024-03-02T05:44:34;10.02;;;5.70;;
45694;SDS011;31408;45.468;9.124;2024-03-02T05:46:59;7.80;;;4.55;;
45694;SDS011;31408;45.468;9.124;2024-03-02T05:49:24;8.07;;;4.85;;
45694;SDS011;31408;45.468;9.124;2024-03-02T05:51:50;8.10;;;5.05;;
45694;SDS011;31408;45.468;9.124;2024-03-02T05:54:15;9.60;;;5.20;;
45694;SDS011;31408;45.468;9.124;2024-03-02T05:56:40;8.55;;;4.50;;
45694;SDS011;31408;45.468;9.124;2024-03-02T05:59:06;7.25;;;4.57;;
45694;SDS011;31408;45.468;9.124;2024-03-02T06:01:41;8.90;;;4.65;;
45694;SDS011;31408;45.468;9.124;2024-03-02T06:04:08;11.30;;;4.30;;
45694;SDS011;31408;45.468;9.124;2024-03-02T06:06:33;8.70;;;4.97;;
45694;SDS011;31408;45.468;9.124;2024-03-02T06:09:02;5.78;;;3.80;;
45694;SDS011;31408;45.468;9.124;2024-03-02T06:11:33;7.80;;;4.57;;
45694;SDS011;31408;45.468;9.124;2024-03-02T06:13:58;6.60;;;4.28;;
45694;SDS011;31408;45.468;9.124;2024-03-02T06:16:24;9.35;;;4.72;;
45694;SDS011;31408;45.468;9.124;2024-03-02T06:18:49;5.80;;;3.70;;
45694;SDS011;31408;45.468;9.124;2024-03-02T06:21:14;9.45;;;4.70;;
45694;SDS011;31408;45.468;9.124;2024-03-02T06:23:40;5.35;;;3.40;;
45694;SDS011;31408;45.468;9.124;2024-03-02T06:26:05;7.55;;;4.88;;
45694;SDS011;31408;45.468;9.124;2024-03-02T06:28:30;8.00;;;4.05;;
45694;SDS011;31408;45.468;9.124;2024-03-02T06:30:56;7.47;;;4.15;;
45694;SDS011;31408;45.468;9.124;2024-03-02T06:33:21;7.90;;;4.07;;
45694;SDS011;31408;45.468;9.124;2024-03-02T06:35:46;8.63;;;4.57;;
45694;SDS011;31408;45.468;9.124;2024-03-02T06:38:12;7.15;;;4.55;;
45694;SDS011;31408;45.468;9.124;2024-03-02T06:40:37;7.95;;;3.90;;
45694;SDS011;31408;45.468;9.124;2024-03-02T06:43:06;7.63;;;4.10;;
45694;SDS011;31408;45.468;9.124;2024-03-02T06:45:31;6.72;;;4.05;;
45694;SDS011;31408;45.468;9.124;2024-03-02T06:47:56;10.63;;;3.63;;
45694;SDS011;31408;45.468;9.124;2024-03-02T06:50:22;5.40;;;3.92;;
45694;SDS011;31408;45.468;9.124;2024-03-02T06:52:47;5.60;;;3.20;;
45694;SDS011;31408;45.468;9.124;2024-03-02T06:55:12;8.32;;;4.03;;
45694;SDS011;31408;45.468;9.124;2024-03-02T06:57:38;8.55;;;4.25;;
45694;SDS011;31408;45.468;9.124;2024-03-02T07:00:03;7.53;;;4.40;;
45694;SDS011;31408;45.468;9.124;2024-03-02T07:02:30;9.10;;;3.80;;
45694;SDS011;31408;45.468;9.124;2024-03-02T07:04:55;7.15;;;3.60;;
45694;SDS011;31408;45.468;9.124;2024-03-02T07:07:21;6.45;;;4.32;;
45694;SDS011;31408;45.468;9.124;2024-03-02T07:09:46;8.98;;;4.38;;
45694;SDS011;31408;45.468;9.124;2024-03-02T07:12:12;8.38;;;4.68;;
45694;SDS011;31408;45.468;9.124;2024-03-02T07:14:38;6.53;;;3.90;;
45694;SDS011;31408;45.468;9.124;2024-03-02T07:17:22;8.27;;;3.85;;
45694;SDS011;31408;45.468;9.124;2024-03-02T07:19:47;12.98;;;4.90;;
45694;SDS011;31408;45.468;9.124;2024-03-02T07:22:13;9.77;;;4.25;;
45694;SDS011;31408;45.468;9.124;2024-03-02T07:24:42;9.10;;;5.95;;
45694;SDS011;31408;45.468;9.124;2024-03-02T07:27:08;11.30;;;5.75;;
45694;SDS011;31408;45.468;9.124;2024-03-02T07:29:33;8.90;;;4.40;;
45694;SDS011;31408;45.468;9.124;2024-03-02T07:31:58;12.20;;;5.80;;
45694;SDS011;31408;45.468;9.124;2024-03-02T07:34:24;8.60;;;5.35;;
45694;SDS011;31408;45.468;9.124;2024-03-02T07:36:49;11.20;;;5.03;;
45694;SDS011;31408;45.468;9.124;2024-03-02T07:39:15;10.95;;;5.57;;
45694;SDS011;31408;45.468;9.124;2024-03-02T07:41:41;8.95;;;5.32;;
45694;SDS011;31408;45.468;9.124;2024-03-02T07:44:06;13.98;;;5.13;;
45694;SDS011;31408;45.468;9.124;2024-03-02T07:46:32;8.27;;;5.35;;
45694;SDS011;31408;45.468;9.124;2024-03-02T07:48:57;11.90;;;5.20;;
45694;SDS011;31408;45.468;9.124;2024-03-02T07:51:23;8.55;;;4.25;;
45694;SDS011;31408;45.468;9.124;2024-03-02T07:53:48;7.55;;;4.55;;
45694;SDS011;31408;45.468;9.124;2024-03-02T07:56:14;8.25;;;4.82;;
45694;SDS011;31408;45.468;9.124;2024-03-02T07:58:46;7.18;;;4.10;;
45694;SDS011;31408;45.468;9.124;2024-03-02T08:01:13;8.75;;;4.47;;
45694;SDS011;31408;45.468;9.124;2024-03-02T08:03:38;9.43;;;4.97;;
45694;SDS011;31408;45.468;9.124;2024-03-02T08:06:03;7.25;;;4.80;;
45694;SDS011;31408;45.468;9.124;2024-03-02T08:08:29;12.18;;;4.95;;
45694;SDS011;31408;45.468;9.124;2024-03-02T08:10:54;5.50;;;3.90;;
45694;SDS011;31408;45.468;9.124;2024-03-02T08:13:19;9.80;;;4.75;;
45694;SDS011;31408;45.468;9.124;2024-03-02T08:15:45;5.20;;;3.22;;
45694;SDS011;31408;45.468;9.124;2024-03-02T08:18:10;5.30;;;3.80;;
45694;SDS011;31408;45.468;9.124;2024-03-02T08:20:35;6.03;;;3.15;;
45694;SDS011;31408;45.468;9.124;2024-03-02T08:23:01;6.05;;;3.00;;
45694;SDS011;31408;45.468;9.124;2024-03-02T08:25:26;5.32;;;3.08;;
45694;SDS011;31408;45.468;9.124;2024-03-02T08:27:52;5.25;;;2.35;;
45694;SDS011;31408;45.468;9.124;2024-03-02T08:30:17;6.72;;;3.45;;
45694;SDS011;31408;45.468;9.124;2024-03-02T08:32:43;5.75;;;3.50;;
45694;SDS011;31408;45.468;9.124;2024-03-02T08:35:08;4.28;;;2.85;;
45694;SDS011;31408;45.468;9.124;2024-03-02T08:37:33;8.63;;;3.70;;
45694;SDS011;31408;45.468;9.124;2024-03-02T08:39:59;4.18;;;2.72;;
45694;SDS011;31408;45.468;9.124;2024-03-02T08:42:24;5.07;;;3.05;;
45694;SDS011;31408;45.468;9.124;2024-03-02T08:44:49;5.47;;;2.97;;
45694;SDS011;31408;45.468;9.124;2024-03-02T08:47:15;5.28;;;3.03;;
45694;SDS011;31408;45.468;9.124;2024-03-02T08:49:40;3.40;;;2.53;;
45694;SDS011;31408;45.468;9.124;2024-03-02T08:52:06;6.47;;;3.22;;
45694;SDS011;31408;45.468;9.124;2024-03-02T08:54:31;5.28;;;3.13;;
45694;SDS011;31408;45.468;9.124;2024-03-02T08:56:58;2.38;;;1.67;;
45694;SDS011;31408;45.468;9.124;2024-03-02T08:59:24;3.42;;;2.42;;
45694;SDS011;31408;45.468;9.124;2024-03-02T09:01:50;3.72;;;2.45;;
45694;SDS011;31408;45.468;9.124;2024-03-02T09:04:15;3.58;;;2.25;;
45694;SDS011;31408;45.468;9.124;2024-03-02T09:06:41;4.72;;;2.40;;
45694;SDS011;31408;45.468;9.124;2024-03-02T09:09:06;5.95;;;3.15;;
45694;SDS011;31408;45.468;9.124;2024-03-02T09:11:31;2.83;;;2.10;;
45694;SDS011;31408;45.468;9.124;2024-03-02T09:13:57;4.07;;;2.67;;
45694;SDS011;31408;45.468;9.124;2024-03-02T09:16:23;4.55;;;2.70;;
45694;SDS011;31408;45.468;9.124;2024-03-02T09:18:49;5.15;;;2.67;;
45694;SDS011;31408;45.468;9.124;2024-03-02T09:21:14;4.75;;;2.78;;
45694;SDS011;31408;45.468;9.124;2024-03-02T09:23:40;2.45;;;2.05;;
45694;SDS011;31408;45.468;9.124;2024-03-02T09:26:05;3.22;;;1.80;;
45694;SDS011;31408;45.468;9.124;2024-03-02T09:28:31;2.88;;;1.45;;
45694;SDS011;31408;45.468;9.124;2024-03-02T09:30:56;4.38;;;2.65;;
45694;SDS011;31408;45.468;9.124;2024-03-02T09:33:21;2.53;;;1.85;;
45694;SDS011;31408;45.468;9.124;2024-03-02T09:35:47;2.83;;;2.20;;
45694;SDS011;31408;45.468;9.124;2024-03-02T09:38:13;3.65;;;2.22;;
45694;SDS011;31408;45.468;9.124;2024-03-02T09:40:39;3.28;;;2.03;;
45694;SDS011;31408;45.468;9.124;2024-03-02T09:43:05;3.15;;;1.95;;
45694;SDS011;31408;45.468;9.124;2024-03-02T09:45:30;3.45;;;1.90;;
45694;SDS011;31408;45.468;9.124;2024-03-02T09:47:56;6.43;;;2.72;;
45694;SDS011;31408;45.468;9.124;2024-03-02T09:50:21;5.75;;;2.45;;
45694;SDS011;31408;45.468;9.124;2024-03-02T09:52:48;4.85;;;2.58;;
45694;SDS011;31408;45.468;9.124;2024-03-02T09:55:13;2.45;;;1.95;;
45694;SDS011;31408;45.468;9.124;2024-03-02T09:57:38;4.18;;;2.35;;
45694;SDS011;31408;45.468;9.124;2024-03-02T10:00:07;2.35;;;2.13;;
45694;SDS011;31408;45.468;9.124;2024-03-02T10:02:32;2.85;;;2.22;;
45694;SDS011;31408;45.468;9.124;2024-03-02T10:04:58;4.50;;;2.00;;
45694;SDS011;31408;45.468;9.124;2024-03-02T10:07:23;3.33;;;2.58;;
45694;SDS011;31408;45.468;9.124;2024-03-02T10:09:49;3.78;;;1.95;;
45694;SDS011;31408;45.468;9.124;2024-03-02T10:12:15;4.72;;;1.98;;
45694;SDS011;31408;45.468;9.124;2024-03-02T10:14:42;2.92;;;2.08;;
45694;SDS011;31408;45.468;9.124;2024-03-02T10:17:08;1.92;;;1.73;;
45694;SDS011;31408;45.468;9.124;2024-03-02T10:19:34;1.75;;;1.52;;
45694;SDS011;31408;45.468;9.124;2024-03-02T10:22:02;5.10;;;1.40;;
45694;SDS011;31408;45.468;9.124;2024-03-02T10:24:34;2.78;;;1.88;;
45694;SDS011;31408;45.468;9.124;2024-03-02T10:27:00;2.47;;;1.20;;
45694;SDS011;31408;45.468;9.124;2024-03-02T10:29:28;1.50;;;1.27;;
45694;SDS011;31408;45.468;9.124;2024-03-02T10:31:54;1.60;;;1.33;;
45694;SDS011;31408;45.468;9.124;2024-03-02T10:34:19;1.75;;;1.42;;
45694;SDS011;31408;45.468;9.124;2024-03-02T10:36:46;2.00;;;1.67;;
45694;SDS011;31408;45.468;9.124;2024-03-02T10:39:12;2.55;;;1.60;;
45694;SDS011;31408;45.468;9.124;2024-03-02T10:41:38;1.70;;;1.60;;
45694;SDS011;31408;45.468;9.124;2024-03-02T10:44:07;1.90;;;1.48;;
45694;SDS011;31408;45.468;9.124;2024-03-02T10:46:33;2.58;;;2.03;;
45694;SDS011;31408;45.468;9.124;2024-03-02T10:49:00;2.33;;;1.85;;
45694;SDS011;31408;45.468;9.124;2024-03-02T10:51:26;2.97;;;2.05;;
45694;SDS011;31408;45.468;9.124;2024-03-02T10:53:51;2.60;;;1.58;;
45694;SDS011;31408;45.468;9.124;2024-03-02T10:56:19;3.40;;;2.08;;
45694;SDS011;31408;45.468;9.124;2024-03-02T10:58:47;3.85;;;2.33;;
45694;SDS011;31408;45.468;9.124;2024-03-02T11:01:15;4.20;;;2.80;;
45694;SDS011;31408;45.468;9.124;2024-03-02T11:03:40;3.88;;;2.08;;
45694;SDS011;31408;45.468;9.124;2024-03-02T11:06:07;3.22;;;2.38;;
45694;SDS011;31408;45.468;9.124;2024-03-02T11:08:33;5.03;;;3.40;;
45694;SDS011;31408;45.468;9.124;2024-03-02T11:11:03;4.78;;;2.88;;
45694;SDS011;31408;45.468;9.124;2024-03-02T11:13:31;5.68;;;3.10;;
45694;SDS011;31408;45.468;9.124;2024-03-02T11:15:59;5.90;;;2.72;;
45694;SDS011;31408;45.468;9.124;2024-03-02T11:18:24;4.22;;;2.47;;
45694;SDS011;31408;45.468;9.124;2024-03-02T11:20:50;6.53;;;3.78;;
45694;SDS011;31408;45.468;9.124;2024-03-02T11:23:16;8.45;;;3.83;;
45694;SDS011;31408;45.468;9.124;2024-03-02T11:25:41;10.32;;;4.10;;
45694;SDS011;31408;45.468;9.124;2024-03-02T11:28:07;9.40;;;3.72;;
45694;SDS011;31408;45.468;9.124;2024-03-02T11:33:09;9.98;;;3.88;;
45694;SDS011;31408;45.468;9.124;2024-03-02T11:35:34;7.85;;;4.22;;
45694;SDS011;31408;45.468;9.124;2024-03-02T11:38:00;6.47;;;3.72;;
45694;SDS011;31408;45.468;9.124;2024-03-02T11:40:26;9.00;;;4.18;;
45694;SDS011;31408;45.468;9.124;2024-03-02T11:42:52;9.13;;;5.07;;
45694;SDS011;31408;45.468;9.124;2024-03-02T11:45:22;8.27;;;4.47;;
45694;SDS011;31408;45.468;9.124;2024-03-02T11:47:50;8.43;;;4.15;;
45694;SDS011;31408;45.468;9.124;2024-03-02T11:53:03;8.15;;;4.65;;
45694;SDS011;31408;45.468;9.124;2024-03-02T11:55:31;6.78;;;3.88;;
45694;SDS011;31408;45.468;9.124;2024-03-02T11:57:59;8.68;;;4.70;;
45694;SDS011;31408;45.468;9.124;2024-03-02T12:00:26;9.13;;;4.88;;
45694;SDS011;31408;45.468;9.124;2024-03-02T12:03:01;10.82;;;4.90;;
45694;SDS011;31408;45.468;9.124;2024-03-02T12:05:26;6.32;;;3.63;;
45694;SDS011;31408;45.468;9.124;2024-03-02T12:07:56;7.20;;;4.28;;
45694;SDS011;31408;45.468;9.124;2024-03-02T12:10:21;12.15;;;5.15;;
45694;SDS011;31408;45.468;9.124;2024-03-02T12:12:47;8.38;;;4.07;;
45694;SDS011;31408;45.468;9.124;2024-03-02T12:15:13;6.07;;;3.78;;
45694;SDS011;31408;45.468;9.124;2024-03-02T12:17:38;6.60;;;4.35;;
45694;SDS011;31408;45.468;9.124;2024-03-02T12:20:06;9.15;;;4.63;;
45694;SDS011;31408;45.468;9.124;2024-03-02T12:22:32;7.20;;;3.78;;
45694;SDS011;31408;45.468;9.124;2024-03-02T12:24:57;8.70;;;3.58;;
45694;SDS011;31408;45.468;9.124;2024-03-02T12:27:22;7.72;;;3.85;;
45694;SDS011;31408;45.468;9.124;2024-03-02T12:29:48;9.70;;;4.45;;
45694;SDS011;31408;45.468;9.124;2024-03-02T12:32:13;6.22;;;3.92;;
45694;SDS011;31408;45.468;9.124;2024-03-02T12:34:39;6.20;;;3.63;;
45694;SDS011;31408;45.468;9.124;2024-03-02T12:37:05;6.20;;;3.78;;
45694;SDS011;31408;45.468;9.124;2024-03-02T12:39:30;8.23;;;4.30;;
45694;SDS011;31408;45.468;9.124;2024-03-02T12:41:57;7.03;;;4.28;;
45694;SDS011;31408;45.468;9.124;2024-03-02T12:44:23;6.53;;;3.85;;
45694;SDS011;31408;45.468;9.124;2024-03-02T12:46:48;6.25;;;3.95;;
45694;SDS011;31408;45.468;9.124;2024-03-02T12:49:14;6.13;;;3.58;;
45694;SDS011;31408;45.468;9.124;2024-03-02T12:51:43;6.85;;;3.50;;
45694;SDS011;31408;45.468;9.124;2024-03-02T12:54:09;9.18;;;4.45;;
45694;SDS011;31408;45.468;9.124;2024-03-02T12:56:35;7.95;;;4.65;;
45694;SDS011;31408;45.468;9.124;2024-03-02T12:59:00;8.93;;;3.22;;
45694;SDS011;31408;45.468;9.124;2024-03-02T13:01:26;7.03;;;3.90;;
45694;SDS011;31408;45.468;9.124;2024-03-02T13:03:52;8.02;;;3.72;;
45694;SDS011;31408;45.468;9.124;2024-03-02T13:06:18;6.13;;;3.65;;
45694;SDS011;31408;45.468;9.124;2024-03-02T13:08:44;7.88;;;4.25;;
45694;SDS011;31408;45.468;9.124;2024-03-02T13:11:10;7.40;;;3.65;;
45694;SDS011;31408;45.468;9.124;2024-03-02T13:13:35;7.80;;;4.25;;
45694;SDS011;31408;45.468;9.124;2024-03-02T13:16:00;11.00;;;3.92;;
45694;SDS011;31408;45.468;9.124;2024-03-02T13:18:26;6.03;;;3.85;;
45694;SDS011;31408;45.468;9.124;2024-03-02T13:20:52;7.32;;;4.47;;
45694;SDS011;31408;45.468;9.124;2024-03-02T13:23:17;7.25;;;3.95;;
45694;SDS011;31408;45.468;9.124;2024-03-02T13:25:42;6.93;;;3.72;;
45694;SDS011;31408;45.468;9.124;2024-03-02T13:28:08;7.55;;;3.85;;
45694;SDS011;31408;45.468;9.124;2024-03-02T13:30:34;6.22;;;3.97;;
45694;SDS011;31408;45.468;9.124;2024-03-02T13:32:59;11.95;;;4.28;;
45694;SDS011;31408;45.468;9.124;2024-03-02T13:35:24;9.07;;;4.93;;
45694;SDS011;31408;45.468;9.124;2024-03-02T13:37:50;7.55;;;3.63;;
45694;SDS011;31408;45.468;9.124;2024-03-02T13:40:15;7.63;;;4.80;;
45694;SDS011;31408;45.468;9.124;2024-03-02T13:42:45;7.00;;;3.88;;
45694;SDS011;31408;45.468;9.124;2024-03-02T13:45:11;5.18;;;3.47;;
45694;SDS011;31408;45.468;9.124;2024-03-02T13:47:37;4.63;;;3.17;;
45694;SDS011;31408;45.468;9.124;2024-03-02T13:50:02;5.97;;;3.25;;
45694;SDS011;31408;45.468;9.124;2024-03-02T13:52:27;5.43;;;3.72;;
45694;SDS011;31408;45.468;9.124;2024-03-02T13:54:53;5.90;;;3.33;;
45694;SDS011;31408;45.468;9.124;2024-03-02T13:57:18;9.27;;;3.83;;
45694;SDS011;31408;45.468;9.124;2024-03-02T13:59:45;7.57;;;3.88;;
45694;SDS011;31408;45.468;9.124;2024-03-02T14:02:10;8.77;;;4.30;;
45694;SDS011;31408;45.468;9.124;2024-03-02T14:04:36;11.32;;;4.00;;
45694;SDS011;31408;45.468;9.124;2024-03-02T14:07:02;9.48;;;4.05;;
45694;SDS011;31408;45.468;9.124;2024-03-02T14:09:27;8.00;;;3.85;;
45694;SDS011;31408;45.468;9.124;2024-03-02T14:11:53;7.45;;;3.92;;
45694;SDS011;31408;45.468;9.124;2024-03-02T14:14:19;5.38;;;4.00;;
45694;SDS011;31408;45.468;9.124;2024-03-02T14:16:44;9.27;;;4.55;;
45694;SDS011;31408;45.468;9.124;2024-03-02T14:19:10;6.55;;;3.25;;
45694;SDS011;31408;45.468;9.124;2024-03-02T14:21:36;8.13;;;3.80;;
45694;SDS011;31408;45.468;9.124;2024-03-02T14:24:02;6.88;;;3.90;;
45694;SDS011;31408;45.468;9.124;2024-03-02T14:26:27;6.80;;;4.25;;
45694;SDS011;31408;45.468;9.124;2024-03-02T14:28:53;11.18;;;5.53;;
45694;SDS011;31408;45.468;9.124;2024-03-02T14:31:19;7.53;;;4.43;;
45694;SDS011;31408;45.468;9.124;2024-03-02T14:33:45;11.82;;;5.45;;
45694;SDS011;31408;45.468;9.124;2024-03-02T14:36:10;8.73;;;4.85;;
45694;SDS011;31408;45.468;9.124;2024-03-02T14:38:36;11.10;;;6.38;;
45694;SDS011;31408;45.468;9.124;2024-03-02T14:41:02;14.48;;;6.50;;
45694;SDS011;31408;45.468;9.124;2024-03-02T14:43:28;11.48;;;5.80;;
45694;SDS011;31408;45.468;9.124;2024-03-02T14:45:54;8.40;;;4.95;;